createdAt,value
2022-10-05T00:01:34.375Z,100806.38
2022-10-05T00:06:35.784Z,100803.19
2022-10-05T00:11:37.148Z,100784.88
2022-10-05T00:16:38.566Z,100777.44
2022-10-05T00:21:39.979Z,100769.06
2022-10-05T00:26:41.412Z,100775.81
2022-10-05T00:31:42.839Z,100781.00
2022-10-05T00:36:45.418Z,100775.63
2022-10-05T00:41:59.045Z,100765.22
2022-10-05T00:47:10.626Z,100748.41
2022-10-05T00:52:22.008Z,100753.94
2022-10-05T00:57:46.774Z,100749.91
2022-10-05T01:03:03.829Z,100760.84
2022-10-05T01:09:02.474Z,100760.00
2022-10-05T01:14:31.128Z,100764.88
2022-10-05T01:20:02.963Z,100763.03
2022-10-05T01:25:16.512Z,100769.94
2022-10-05T01:30:20.247Z,100768.25
2022-10-05T01:35:34.207Z,100768.25
2022-10-05T01:41:03.198Z,100765.72
2022-10-05T01:46:34.003Z,100747.41
2022-10-05T01:51:47.917Z,100748.25
2022-10-05T01:57:17.566Z,100733.63
2022-10-05T02:02:23.816Z,100726.59
2022-10-05T02:07:49.407Z,100723.72
2022-10-05T02:12:57.077Z,100717.16
2022-10-05T02:18:10.218Z,100720.50
2022-10-05T02:23:18.226Z,100718.50
2022-10-05T02:28:27.790Z,100712.59
2022-10-05T02:33:32.431Z,100699.66
2022-10-05T02:38:47.946Z,100694.97
2022-10-05T02:44:24.745Z,100697.50
2022-10-05T02:49:40.779Z,100701.34
2022-10-05T02:54:54.766Z,100705.03
2022-10-05T03:00:14.859Z,100702.34
2022-10-05T03:05:25.081Z,100703.34
2022-10-05T03:10:42.947Z,100706.03
2022-10-05T03:15:48.041Z,100710.41
2022-10-05T03:20:55.749Z,100709.06
2022-10-05T03:26:21.877Z,100715.28
2022-10-05T03:31:43.684Z,100724.16
2022-10-05T03:36:57.349Z,100729.22
2022-10-05T03:42:08.298Z,100722.50
2022-10-05T03:47:28.196Z,100719.66
2022-10-05T03:52:48.599Z,100721.16
2022-10-05T03:57:52.949Z,100719.66
2022-10-05T04:03:21.021Z,100715.47
2022-10-05T04:08:28.424Z,100715.63
2022-10-05T04:13:42.558Z,100702.88
2022-10-05T04:19:11.249Z,100701.34
2022-10-05T04:24:22.212Z,100698.50
2022-10-05T04:29:53.389Z,100710.25
2022-10-05T04:35:25.841Z,100712.91
2022-10-05T04:41:04.080Z,100713.06
2022-10-05T04:46:36.806Z,100715.56
2022-10-05T04:51:53.361Z,100723.72
2022-10-05T04:57:04.954Z,100726.72
2022-10-05T05:02:37.086Z,100732.88
2022-10-05T05:07:52.967Z,100731.31
2022-10-05T05:13:16.867Z,100729.06
2022-10-05T05:18:50.151Z,100732.78
2022-10-05T05:24:12.356Z,100740.03
2022-10-05T05:29:35.930Z,100746.88
2022-10-05T05:34:52.561Z,100746.16
2022-10-05T05:40:12.386Z,100746.75
2022-10-05T05:45:26.215Z,100742.22
2022-10-05T05:50:33.662Z,100748.50
2022-10-05T05:55:49.463Z,100748.34
2022-10-05T06:01:03.358Z,100748.66
2022-10-05T06:06:09.207Z,100741.03
2022-10-05T06:11:21.856Z,100743.34
2022-10-05T06:16:48.173Z,100745.53
2022-10-05T06:22:04.772Z,100745.75
2022-10-05T06:27:25.098Z,100745.78
2022-10-05T06:32:30.988Z,100741.28
2022-10-05T06:38:09.879Z,100750.97
2022-10-05T06:43:29.847Z,100755.69
2022-10-05T06:48:39.946Z,100741.31
2022-10-05T06:53:54.182Z,100745.69
2022-10-05T06:59:04.398Z,100753.44
2022-10-05T07:04:15.634Z,100759.22
2022-10-05T07:09:54.330Z,100760.13
2022-10-05T07:15:15.345Z,100750.72
2022-10-05T07:20:25.872Z,100757.25
2022-10-05T07:25:50.644Z,100756.78
2022-10-05T07:31:00.262Z,100761.06
2022-10-05T07:36:31.499Z,100752.56
2022-10-05T07:41:48.535Z,100762.97
2022-10-05T07:46:54.679Z,100760.38
2022-10-05T07:52:00.799Z,100755.03
2022-10-05T07:57:13.359Z,100763.44
2022-10-05T08:02:44.465Z,100760.41
2022-10-05T08:07:52.235Z,100760.94
2022-10-05T08:13:12.118Z,100755.06
2022-10-05T08:18:25.915Z,100756.09
2022-10-05T08:23:47.255Z,100757.38
2022-10-05T08:29:16.351Z,100765.50
2022-10-05T08:34:31.007Z,100762.91
2022-10-05T08:39:52.204Z,100762.72
2022-10-05T08:45:25.061Z,100755.25
2022-10-05T08:51:04.874Z,100765.03
2022-10-05T08:56:09.111Z,100749.94
2022-10-05T09:01:20.763Z,100751.44
2022-10-05T09:06:51.059Z,100747.81
2022-10-05T09:12:38.450Z,100754.13
2022-10-05T09:18:24.576Z,100751.50
2022-10-05T09:23:43.247Z,100756.03
2022-10-05T09:29:14.288Z,100753.34
2022-10-05T09:34:37.476Z,100744.47
2022-10-05T09:39:46.832Z,100748.03
2022-10-05T09:45:07.422Z,100748.88
2022-10-05T09:50:38.370Z,100743.97
2022-10-05T09:56:09.367Z,100738.22
2022-10-05T10:01:36.381Z,100738.44
2022-10-05T10:07:15.343Z,100724.88
2022-10-05T10:12:16.705Z,100718.03
2022-10-05T10:18:01.862Z,100713.25
2022-10-05T10:23:45.477Z,100721.00
2022-10-05T10:29:03.116Z,100728.94
2022-10-05T10:34:25.483Z,100718.88
2022-10-05T10:40:00.779Z,100726.97
2022-10-05T10:45:19.245Z,100716.22
2022-10-05T10:50:39.562Z,100725.25
2022-10-05T10:56:28.244Z,100711.16
2022-10-05T11:01:35.458Z,100695.84
2022-10-05T11:07:05.989Z,100691.03
2022-10-05T11:12:25.732Z,100683.09
2022-10-05T11:17:49.084Z,100674.81
2022-10-05T11:22:57.808Z,100667.97
2022-10-05T11:28:23.572Z,100663.47
2022-10-05T11:33:38.954Z,100656.59
2022-10-05T11:38:55.166Z,100659.53
2022-10-05T11:44:16.442Z,100640.06
2022-10-05T11:49:22.330Z,100638.09
2022-10-05T11:55:09.164Z,100638.53
2022-10-05T12:00:19.042Z,100625.94
2022-10-05T12:05:27.908Z,100616.50
2022-10-05T12:10:42.945Z,100607.13
2022-10-05T12:15:53.239Z,100605.31
2022-10-05T12:21:22.831Z,100607.72
2022-10-05T12:26:44.633Z,100597.97
2022-10-05T12:32:07.855Z,100599.59
2022-10-05T12:37:32.004Z,100590.47
2022-10-05T12:42:43.402Z,100583.97
2022-10-05T12:48:06.760Z,100580.75
2022-10-05T12:53:16.993Z,100578.22
2022-10-05T12:58:33.612Z,100577.50
2022-10-05T13:03:45.950Z,100575.78
2022-10-05T13:09:08.720Z,100567.44
2022-10-05T13:14:28.765Z,100570.16
2022-10-05T13:19:39.997Z,100555.72
2022-10-05T13:25:13.652Z,100543.56
2022-10-05T13:30:18.649Z,100543.78
2022-10-05T13:35:21.619Z,100548.47
2022-10-05T13:40:29.992Z,100544.25
2022-10-05T13:45:42.097Z,100544.84
2022-10-05T13:51:13.781Z,100538.97
2022-10-05T13:56:21.622Z,100539.84
2022-10-05T14:01:41.412Z,100548.16
2022-10-05T14:06:45.396Z,100528.13
2022-10-05T14:11:53.671Z,100529.34
2022-10-05T14:17:00.739Z,100526.69
2022-10-05T14:22:11.461Z,100519.44
2022-10-05T14:27:22.119Z,100521.72
2022-10-05T14:32:25.586Z,100519.13
2022-10-05T14:37:56.270Z,100509.03
2022-10-05T14:43:01.793Z,100496.97
2022-10-05T14:48:10.813Z,100495.44
2022-10-05T14:53:21.323Z,100497.06
2022-10-05T14:58:55.751Z,100490.91
2022-10-05T15:03:57.048Z,100491.31
2022-10-05T15:09:17.918Z,100479.41
2022-10-05T15:14:21.756Z,100466.72
2022-10-05T15:19:31.365Z,100465.31
2022-10-05T15:24:52.032Z,100453.75
2022-10-05T15:30:10.896Z,100450.78
2022-10-05T15:35:36.788Z,100439.41
2022-10-05T15:40:58.933Z,100435.22
2022-10-05T15:46:10.458Z,100429.91
2022-10-05T15:51:29.849Z,100434.19
2022-10-05T15:56:38.774Z,100438.94
2022-10-05T16:01:51.337Z,100437.81
2022-10-05T16:07:17.678Z,100445.06
2022-10-05T16:13:04.907Z,100441.44
2022-10-05T16:18:40.135Z,100440.72
2022-10-05T16:24:05.728Z,100442.19
2022-10-05T16:29:32.899Z,100448.50
2022-10-05T16:34:54.105Z,100457.03
2022-10-05T16:40:28.578Z,100458.63
2022-10-05T16:45:45.797Z,100457.53
2022-10-05T16:51:25.477Z,100458.59
2022-10-05T16:56:51.174Z,100454.84
2022-10-05T17:02:00.659Z,100469.56
2022-10-05T17:07:20.317Z,100466.50
2022-10-05T17:12:31.378Z,100482.84
2022-10-05T17:17:57.693Z,100485.97
2022-10-05T17:23:31.214Z,100490.31
2022-10-05T17:28:59.629Z,100498.78
2022-10-05T17:34:11.503Z,100509.19
2022-10-05T17:39:18.645Z,100526.28
2022-10-05T17:44:25.636Z,100539.94
2022-10-05T17:49:46.701Z,100538.81
2022-10-05T17:55:06.508Z,100541.06
2022-10-05T18:00:31.476Z,100559.97
2022-10-05T18:05:32.883Z,100558.84
2022-10-05T18:10:37.868Z,100564.03
2022-10-05T18:15:49.229Z,100570.03
2022-10-05T18:21:15.626Z,100575.69
2022-10-05T18:26:54.545Z,100576.75
2022-10-05T18:32:03.301Z,100589.13
2022-10-05T18:37:21.507Z,100583.19
2022-10-05T18:42:54.630Z,100594.41
2022-10-05T18:48:03.890Z,100605.19
2022-10-05T18:53:28.436Z,100609.88
2022-10-05T18:58:36.628Z,100617.97
2022-10-05T19:03:52.866Z,100620.31
2022-10-05T19:09:17.172Z,100622.50
2022-10-05T19:14:31.756Z,100648.59
2022-10-05T19:19:51.624Z,100661.88
2022-10-05T19:24:59.025Z,100666.72
2022-10-05T19:30:21.171Z,100674.69
2022-10-05T19:35:43.445Z,100682.63
2022-10-05T19:41:11.264Z,100682.38
2022-10-05T19:46:37.507Z,100698.97
2022-10-05T19:51:51.629Z,100700.84
2022-10-05T19:56:54.837Z,100703.75
2022-10-05T20:01:57.904Z,100703.75
2022-10-05T20:07:03.493Z,100713.84
2022-10-05T20:12:05.287Z,100719.28
2022-10-05T20:17:44.819Z,100727.50
2022-10-05T20:22:46.888Z,100740.47
2022-10-05T20:27:51.101Z,100734.38
2022-10-05T20:32:58.262Z,100739.22
2022-10-05T20:38:00.140Z,100761.41
2022-10-05T20:43:01.671Z,100758.06
2022-10-05T20:48:03.642Z,100782.19
2022-10-05T20:53:10.980Z,100778.44
2022-10-05T20:58:13.324Z,100779.31
2022-10-05T21:03:14.883Z,100772.22
2022-10-05T21:08:17.725Z,100780.19
2022-10-05T21:13:19.093Z,100782.09
2022-10-05T21:18:20.424Z,100788.66
2022-10-05T21:23:21.891Z,100795.81
2022-10-05T21:28:23.361Z,100807.31
2022-10-05T21:33:25.232Z,100804.84
2022-10-05T21:38:27.904Z,100804.28
2022-10-05T21:43:29.859Z,100811.41
2022-10-05T21:48:33.552Z,100805.13
2022-10-05T21:53:40.203Z,100812.69
2022-10-05T21:58:44.103Z,100815.63
2022-10-05T22:03:45.550Z,100827.56
2022-10-05T22:08:46.957Z,100838.63
2022-10-05T22:13:51.187Z,100852.22
2022-10-05T22:18:53.586Z,100855.41
2022-10-05T22:23:55.026Z,100851.00
2022-10-05T22:28:56.945Z,100848.06
2022-10-05T22:33:58.518Z,100850.78
2022-10-05T22:39:00.010Z,100857.06
2022-10-05T22:44:02.637Z,100860.81
2022-10-05T22:49:04.054Z,100865.63
2022-10-05T22:54:05.923Z,100864.78
2022-10-05T22:59:07.284Z,100877.75
2022-10-05T23:04:08.828Z,100882.34
2022-10-05T23:09:10.287Z,100888.63
2022-10-05T23:14:11.765Z,100877.13
2022-10-05T23:19:13.905Z,100880.03
2022-10-05T23:24:15.321Z,100888.16
2022-10-05T23:29:16.952Z,100900.47
2022-10-05T23:34:18.346Z,100890.44
2022-10-05T23:39:19.702Z,100902.94
2022-10-05T23:44:22.895Z,100904.19
2022-10-05T23:49:24.356Z,100921.66
2022-10-05T23:54:25.824Z,100910.34
2022-10-05T23:59:27.410Z,100918.66
